createdAt,value
2023-05-21T00:02:46.133Z,14.7
2023-05-21T00:18:09.433Z,14.6
2023-05-21T00:33:32.735Z,14.5
2023-05-21T00:48:56.038Z,14.2
2023-05-21T01:04:19.341Z,14
2023-05-21T01:19:42.626Z,14
2023-05-21T01:35:04.953Z,13.9
2023-05-21T01:50:28.245Z,13.9
2023-05-21T01:51:51.687Z,13.8
2023-05-21T01:53:15.143Z,13.9
2023-05-21T01:54:38.590Z,13.9
2023-05-21T01:56:02.043Z,13.8
2023-05-21T01:57:25.493Z,13.8
2023-05-21T01:58:48.944Z,13.8
2023-05-21T02:00:12.387Z,13.9
2023-05-21T02:01:35.831Z,13.8
2023-05-21T02:02:59.295Z,13.8
2023-05-21T02:04:22.747Z,13.8
2023-05-21T02:05:46.191Z,13.7
2023-05-21T02:07:08.656Z,13.7
2023-05-21T02:08:32.100Z,13.7
2023-05-21T02:09:55.547Z,13.7
2023-05-21T02:11:19.001Z,13.7
2023-05-21T02:12:42.446Z,13.7
2023-05-21T02:14:05.900Z,13.7
2023-05-21T02:15:29.361Z,13.7
2023-05-21T02:16:52.810Z,13.5
2023-05-21T02:18:16.248Z,13.6
2023-05-21T02:19:39.702Z,13.6
2023-05-21T02:21:03.155Z,13.4
2023-05-21T02:22:26.602Z,13.6
2023-05-21T02:23:50.052Z,13.6
2023-05-21T02:25:12.518Z,13.6
2023-05-21T02:26:35.960Z,13.5
2023-05-21T02:27:59.423Z,13.5
2023-05-21T02:29:22.857Z,13.5
2023-05-21T02:30:46.318Z,13.5
2023-05-21T02:32:09.771Z,13.6
2023-05-21T02:33:33.213Z,13.6
2023-05-21T02:34:56.662Z,13.6
2023-05-21T02:36:20.121Z,13.5
2023-05-21T02:37:43.565Z,13.5
2023-05-21T02:39:07.011Z,13.6
2023-05-21T02:40:30.425Z,13.5
2023-05-21T02:41:53.832Z,13.4
2023-05-21T02:43:16.244Z,13.5
2023-05-21T02:44:39.653Z,13.5
2023-05-21T02:46:03.059Z,13.5
2023-05-21T02:47:26.473Z,13.5
2023-05-21T02:48:49.878Z,13.4
2023-05-21T02:50:13.275Z,13.3
2023-05-21T03:05:36.536Z,13.4
2023-05-21T03:20:59.795Z,13.5
2023-05-21T03:36:23.043Z,13.4
2023-05-21T03:51:46.301Z,13.4
2023-05-21T04:07:09.555Z,13.5
2023-05-21T04:22:32.816Z,14
2023-05-21T04:37:56.068Z,14.2
2023-05-21T04:53:18.340Z,14.5
2023-05-21T05:08:41.580Z,14.7
2023-05-21T05:24:04.840Z,14.9
2023-05-21T05:39:28.084Z,15.4
2023-05-21T05:54:51.339Z,16.1
2023-05-21T06:10:14.606Z,16.8
2023-05-21T06:25:37.848Z,17.5
2023-05-21T06:41:01.119Z,18.4
2023-05-21T06:56:24.363Z,19.2
2023-05-21T07:11:47.619Z,19.7
2023-05-21T07:27:10.875Z,20.4
2023-05-21T07:42:34.125Z,21.2
2023-05-21T07:57:57.388Z,22
2023-05-21T07:59:19.805Z,22
2023-05-21T08:00:43.224Z,22.1
2023-05-21T08:02:06.639Z,22.1
2023-05-21T08:03:30.027Z,22.2
2023-05-21T08:04:53.443Z,22.4
2023-05-21T08:06:16.859Z,22.5
2023-05-21T08:07:40.262Z,22.5
2023-05-21T08:09:03.667Z,22.6
2023-05-21T08:10:27.084Z,22.7
2023-05-21T08:11:50.499Z,22.7
2023-05-21T08:13:13.897Z,22.8
2023-05-21T08:14:37.299Z,22.9
2023-05-21T08:16:00.722Z,22.9
2023-05-21T08:17:23.153Z,22.9
2023-05-21T08:18:46.550Z,23
2023-05-21T08:20:09.959Z,23.1
2023-05-21T08:21:33.371Z,23.2
2023-05-21T08:22:56.781Z,23.2
2023-05-21T08:24:20.184Z,23.3
2023-05-21T08:25:43.602Z,23.4
2023-05-21T08:27:06.994Z,23.5
2023-05-21T08:28:30.400Z,23.6
2023-05-21T08:29:53.809Z,23.7
2023-05-21T08:31:17.232Z,23.7
2023-05-21T08:32:40.627Z,23.9
2023-05-21T08:34:04.037Z,24
2023-05-21T08:35:26.458Z,24.1
2023-05-21T08:36:49.865Z,24.1
2023-05-21T08:38:13.284Z,24.2
2023-05-21T08:39:36.675Z,24.2
2023-05-21T08:41:00.094Z,24.3
2023-05-21T08:42:23.499Z,24.5
2023-05-21T08:43:46.913Z,24.6
2023-05-21T08:45:10.320Z,24.8
2023-05-21T08:46:33.736Z,24.9
2023-05-21T08:47:57.136Z,24.9
2023-05-21T08:49:20.553Z,24.9
2023-05-21T08:50:43.963Z,25
2023-05-21T08:52:07.369Z,25.1
2023-05-21T08:53:29.802Z,25.2
2023-05-21T08:54:53.197Z,25.4
2023-05-21T08:56:16.615Z,25.5
2023-05-21T08:57:40.019Z,25.7
2023-05-21T08:59:03.418Z,25.7
2023-05-21T09:00:26.837Z,25.9
2023-05-21T09:01:50.246Z,26.2
2023-05-21T09:03:13.660Z,26.3
2023-05-21T09:04:37.047Z,26.5
2023-05-21T09:06:00.462Z,26.6
2023-05-21T09:07:23.876Z,26.7
2023-05-21T09:08:47.276Z,26.8
2023-05-21T09:10:10.680Z,26.9
2023-05-21T09:11:33.116Z,26.8
2023-05-21T09:12:56.530Z,27
2023-05-21T09:14:19.924Z,27.1
2023-05-21T09:15:43.329Z,27.4
2023-05-21T09:17:06.752Z,27.4
2023-05-21T09:18:30.155Z,27.4
2023-05-21T09:19:53.563Z,27.4
2023-05-21T09:21:16.974Z,27.4
2023-05-21T09:22:40.380Z,27.4
2023-05-21T09:24:03.775Z,27.6
2023-05-21T09:25:27.191Z,27.6
2023-05-21T09:26:50.592Z,27.7
2023-05-21T09:28:14.008Z,27.8
2023-05-21T09:29:36.426Z,28
2023-05-21T09:30:59.847Z,27.9
2023-05-21T09:32:23.250Z,27.8
2023-05-21T09:33:46.677Z,27.9
2023-05-21T09:35:10.075Z,28.1
2023-05-21T09:36:33.478Z,28
2023-05-21T09:37:56.900Z,28.1
2023-05-21T09:39:20.303Z,28.3
2023-05-21T09:40:43.722Z,28.3
2023-05-21T09:42:07.115Z,28.1
2023-05-21T09:43:30.524Z,28.2
2023-05-21T09:44:53.941Z,28.3
2023-05-21T09:46:17.340Z,28.2
2023-05-21T09:47:39.764Z,28.3
2023-05-21T09:49:03.185Z,28.3
2023-05-21T09:50:26.582Z,28.4
2023-05-21T09:51:49.992Z,28.5
2023-05-21T09:53:13.403Z,28.5
2023-05-21T09:54:36.817Z,28.5
2023-05-21T09:55:59.243Z,28.7
2023-05-21T09:57:22.650Z,28.6
2023-05-21T09:58:46.064Z,28.7
2023-05-21T10:00:09.476Z,28.8
2023-05-21T10:01:32.885Z,29
2023-05-21T10:02:56.281Z,29.2
2023-05-21T10:04:19.701Z,29.2
2023-05-21T10:05:43.090Z,29.3
2023-05-21T10:07:06.514Z,29.4
2023-05-21T10:08:29.907Z,29.5
2023-05-21T10:09:53.319Z,29.4
2023-05-21T10:11:16.722Z,29.2
2023-05-21T10:12:40.141Z,29.2
2023-05-21T10:14:02.564Z,29.3
2023-05-21T10:15:25.977Z,29.5
2023-05-21T10:16:49.373Z,29.4
2023-05-21T10:18:12.791Z,29.5
2023-05-21T10:19:36.209Z,29.4
2023-05-21T10:20:59.610Z,29.5
2023-05-21T10:22:23.022Z,29.8
2023-05-21T10:23:46.415Z,29.7
2023-05-21T10:25:09.837Z,29.8
2023-05-21T10:26:33.241Z,29.8
2023-05-21T10:27:56.650Z,29.8
2023-05-21T10:29:20.065Z,30
2023-05-21T10:30:43.467Z,30
2023-05-21T10:33:29.302Z,29.6
2023-05-21T10:34:52.724Z,29.3
2023-05-21T10:36:16.115Z,29.3
2023-05-21T10:37:39.524Z,29.2
2023-05-21T10:39:02.944Z,29.2
2023-05-21T10:40:26.345Z,29.2
2023-05-21T10:41:49.757Z,29
2023-05-21T10:43:13.163Z,28.9
2023-05-21T10:44:36.585Z,28.9
2023-05-21T10:45:59.975Z,29.1
2023-05-21T10:47:23.398Z,29.1
2023-05-21T10:48:46.796Z,29.1
2023-05-21T10:50:09.224Z,29.1
2023-05-21T10:51:32.651Z,29
2023-05-21T10:52:56.063Z,29
2023-05-21T10:54:19.460Z,29.1
2023-05-21T10:55:42.861Z,29.3
2023-05-21T10:57:06.281Z,29.4
2023-05-21T10:58:29.680Z,29.3
2023-05-21T10:59:53.093Z,29.2
2023-05-21T11:01:16.511Z,29.3
2023-05-21T11:02:39.927Z,29.3
2023-05-21T11:04:03.335Z,29.1
2023-05-21T11:05:26.737Z,29.2
2023-05-21T11:06:50.156Z,29.2
2023-05-21T11:08:12.571Z,29.2
2023-05-21T11:09:35.972Z,29.3
2023-05-21T11:10:59.385Z,29.1
2023-05-21T11:12:22.795Z,29.1
2023-05-21T11:13:46.210Z,28.9
2023-05-21T11:15:09.622Z,29
2023-05-21T11:16:33.019Z,29.1
2023-05-21T11:17:56.427Z,29.2
2023-05-21T11:19:19.838Z,29
2023-05-21T11:20:43.237Z,29.1
2023-05-21T11:22:06.647Z,28.9
2023-05-21T11:23:30.064Z,29
2023-05-21T11:24:53.467Z,29
2023-05-21T11:26:15.902Z,29.1
2023-05-21T11:27:39.295Z,29.1
2023-05-21T11:29:02.722Z,29.2
2023-05-21T11:30:26.127Z,29.6
2023-05-21T11:31:49.538Z,29.9
2023-05-21T11:33:12.937Z,30.3
2023-05-21T11:34:36.334Z,30.5
2023-05-21T11:35:59.749Z,30.6
2023-05-21T11:37:23.155Z,30.7
2023-05-21T11:38:46.562Z,30.9
2023-05-21T11:40:09.977Z,31
2023-05-21T11:41:33.387Z,31.3
2023-05-21T11:42:56.795Z,31.5
2023-05-21T11:44:19.214Z,31.4
2023-05-21T11:45:42.628Z,31.3
2023-05-21T11:47:06.039Z,30.7
2023-05-21T11:48:29.444Z,30.6
2023-05-21T11:49:52.859Z,30.8
2023-05-21T11:51:16.267Z,31.2
2023-05-21T11:52:39.664Z,31.5
2023-05-21T11:54:03.078Z,31.7
2023-05-21T11:55:26.486Z,31.6
2023-05-21T11:56:49.892Z,31.4
2023-05-21T11:58:13.305Z,31
2023-05-21T11:59:36.713Z,29.8
2023-05-21T12:01:00.112Z,29.4
2023-05-21T12:02:22.554Z,29
2023-05-21T12:03:45.955Z,28.7
2023-05-21T12:05:09.364Z,29
2023-05-21T12:06:32.777Z,29.4
2023-05-21T12:07:56.172Z,29.9
2023-05-21T12:09:19.585Z,30.1
2023-05-21T12:10:43.006Z,30.3
2023-05-21T12:12:06.392Z,30.6
2023-05-21T12:13:29.801Z,30.7
2023-05-21T12:14:53.221Z,30.6
2023-05-21T12:16:16.618Z,30.1
2023-05-21T12:17:40.028Z,30.2
2023-05-21T12:19:03.448Z,30.4
2023-05-21T12:20:25.862Z,30.6
2023-05-21T12:21:49.275Z,30.6
2023-05-21T12:23:12.695Z,30.5
2023-05-21T12:24:36.107Z,30.7
2023-05-21T12:25:59.519Z,30.8
2023-05-21T12:27:22.913Z,31
2023-05-21T12:28:46.317Z,30.8
2023-05-21T12:30:09.720Z,30.2
2023-05-21T12:31:33.143Z,29.8
2023-05-21T12:32:56.547Z,29.3
2023-05-21T12:34:19.946Z,28.9
2023-05-21T12:35:43.368Z,29.1
2023-05-21T12:37:06.774Z,29
2023-05-21T12:38:29.198Z,29
2023-05-21T12:39:52.614Z,29.3
2023-05-21T12:41:16.012Z,29.6
2023-05-21T12:42:39.430Z,30
2023-05-21T12:44:02.833Z,30.3
2023-05-21T12:45:26.245Z,30.6
2023-05-21T12:46:49.658Z,30.8
2023-05-21T12:48:13.055Z,31.1
2023-05-21T12:49:36.488Z,31.1
2023-05-21T12:50:59.881Z,31
2023-05-21T12:52:23.299Z,30.8
2023-05-21T12:53:46.712Z,30.9
2023-05-21T12:55:10.111Z,30.8
2023-05-21T12:56:32.531Z,30.6
2023-05-21T12:57:55.951Z,30.4
2023-05-21T12:59:19.357Z,30.2
2023-05-21T13:00:42.766Z,30.1
2023-05-21T13:02:06.163Z,30.1
2023-05-21T13:03:29.594Z,30.1
2023-05-21T13:04:53.003Z,30.2
2023-05-21T13:06:16.399Z,30.6
2023-05-21T13:07:39.819Z,30.9
2023-05-21T13:09:03.231Z,30.6
2023-05-21T13:10:26.638Z,30.6
2023-05-21T13:11:50.041Z,30.8
2023-05-21T13:13:13.441Z,30.9
2023-05-21T13:14:35.868Z,30.6
2023-05-21T13:15:59.274Z,30.5
2023-05-21T13:17:22.697Z,30.4
2023-05-21T13:18:46.102Z,30.3
2023-05-21T13:20:09.502Z,30.4
2023-05-21T13:21:32.919Z,30.4
2023-05-21T13:22:56.330Z,30.2
2023-05-21T13:25:43.138Z,29.8
2023-05-21T13:27:06.557Z,29.4
2023-05-21T13:28:29.951Z,29.6
2023-05-21T13:29:53.376Z,29.7
2023-05-21T13:31:16.773Z,29.8
2023-05-21T13:32:39.215Z,29.8
2023-05-21T13:34:02.609Z,29.6
2023-05-21T13:35:26.028Z,29.1
2023-05-21T13:36:49.429Z,28.7
2023-05-21T13:38:12.839Z,28.3
2023-05-21T13:39:36.268Z,28.1
2023-05-21T13:40:59.675Z,27.9
2023-05-21T13:42:23.075Z,28
2023-05-21T13:43:46.492Z,28
2023-05-21T13:45:09.903Z,28.1
2023-05-21T13:46:33.312Z,28.1
2023-05-21T13:47:56.717Z,28.4
2023-05-21T13:49:20.127Z,28.4
2023-05-21T13:50:42.551Z,28.5
2023-05-21T13:52:05.952Z,28.5
2023-05-21T13:53:29.367Z,28.5
2023-05-21T13:54:52.763Z,28.5
2023-05-21T13:56:16.188Z,28.5
2023-05-21T13:57:39.590Z,28.6
2023-05-21T13:59:02.989Z,28.6
2023-05-21T14:00:26.398Z,28.7
2023-05-21T14:01:49.810Z,28.7
2023-05-21T14:03:13.234Z,28.7
2023-05-21T14:04:36.631Z,28.8
2023-05-21T14:06:00.043Z,28.8
2023-05-21T14:07:23.448Z,28.8
2023-05-21T14:08:45.877Z,28.8
2023-05-21T14:10:09.291Z,28.8
2023-05-21T14:11:32.705Z,28.8
2023-05-21T14:12:56.101Z,28.7
2023-05-21T14:14:19.504Z,28.6
2023-05-21T14:15:42.926Z,28.6
2023-05-21T14:17:06.329Z,28.7
2023-05-21T14:18:29.738Z,28.8
2023-05-21T14:19:53.139Z,28.8
2023-05-21T14:21:16.559Z,28.9
2023-05-21T14:22:39.977Z,29
2023-05-21T14:24:03.371Z,29.1
2023-05-21T14:25:26.780Z,29.1
2023-05-21T14:26:49.216Z,28.9
2023-05-21T14:28:12.614Z,28.8
2023-05-21T14:29:36.029Z,28.7
2023-05-21T14:30:59.433Z,28.8
2023-05-21T14:32:22.844Z,28.7
2023-05-21T14:33:46.259Z,28.5
2023-05-21T14:35:08.678Z,28.4
2023-05-21T14:36:32.091Z,28.2
2023-05-21T14:37:55.503Z,28.2
2023-05-21T14:39:18.907Z,28
2023-05-21T14:40:42.314Z,27.9
2023-05-21T14:42:05.716Z,27.8
2023-05-21T14:43:29.126Z,27.8
2023-05-21T14:44:52.548Z,27.8
2023-05-21T14:46:15.944Z,27.7
2023-05-21T14:47:39.362Z,27.7
2023-05-21T14:49:02.771Z,27.5
2023-05-21T14:50:26.167Z,27.4
2023-05-21T14:51:49.565Z,27.4
2023-05-21T14:53:12.002Z,27.3
2023-05-21T14:54:35.400Z,27.2
2023-05-21T14:55:58.824Z,27.2
2023-05-21T14:57:22.230Z,27.2
2023-05-21T14:58:45.000Z,27.2
2023-05-21T15:00:09.051Z,27.1
2023-05-21T15:01:32.456Z,27.1
2023-05-21T15:02:55.863Z,27
2023-05-21T15:04:19.257Z,27
2023-05-21T15:05:42.666Z,26.9
2023-05-21T15:07:06.093Z,26.9
2023-05-21T15:08:29.491Z,26.9
2023-05-21T15:09:52.900Z,26.8
2023-05-21T15:11:15.334Z,26.9
2023-05-21T15:12:38.732Z,26.7
2023-05-21T15:14:02.135Z,26.7
2023-05-21T15:15:25.543Z,26.8
2023-05-21T15:16:48.952Z,26.7
2023-05-21T15:18:12.374Z,26.8
2023-05-21T15:19:35.778Z,26.7
2023-05-21T15:20:59.187Z,26.7
2023-05-21T15:22:22.599Z,26.7
2023-05-21T15:23:46.003Z,26.7
2023-05-21T15:25:09.402Z,26.6
2023-05-21T15:26:32.819Z,26.6
2023-05-21T15:27:56.223Z,26.7
2023-05-21T15:29:18.636Z,26.6
2023-05-21T15:30:42.058Z,26.6
2023-05-21T15:32:05.456Z,26.6
2023-05-21T15:33:28.875Z,26.6
2023-05-21T15:34:52.273Z,26.5
2023-05-21T15:36:15.685Z,26.6
2023-05-21T15:37:39.099Z,26.6
2023-05-21T15:39:02.509Z,26.6
2023-05-21T15:40:25.904Z,26.6
2023-05-21T15:41:49.318Z,26.7
2023-05-21T15:43:12.717Z,26.7
2023-05-21T15:44:36.128Z,26.7
2023-05-21T15:45:59.546Z,26.7
2023-05-21T15:47:21.955Z,26.7
2023-05-21T15:48:45.362Z,26.6
2023-05-21T15:50:08.772Z,26.7
2023-05-21T15:51:32.201Z,26.7
2023-05-21T15:52:55.608Z,26.7
2023-05-21T15:54:19.011Z,26.6
2023-05-21T15:55:42.422Z,26.7
2023-05-21T15:57:05.819Z,26.6
2023-05-21T15:58:29.232Z,26.7
2023-05-21T15:59:52.655Z,26.6
2023-05-21T16:01:16.055Z,26.6
2023-05-21T16:02:39.472Z,26.6
2023-05-21T16:04:02.878Z,26.6
2023-05-21T16:05:25.287Z,26.6
2023-05-21T16:06:48.704Z,26.6
2023-05-21T16:08:12.109Z,26.6
2023-05-21T16:09:35.530Z,26.6
2023-05-21T16:10:58.937Z,26.6
2023-05-21T16:12:22.337Z,26.6
2023-05-21T16:13:45.749Z,26.7
2023-05-21T16:15:09.158Z,26.6
2023-05-21T16:16:32.576Z,26.7
2023-05-21T16:17:55.970Z,26.6
2023-05-21T16:19:19.376Z,26.6
2023-05-21T16:20:42.802Z,26.6
2023-05-21T16:22:06.204Z,26.6
2023-05-21T16:23:28.631Z,26.6
2023-05-21T16:24:52.044Z,26.6
2023-05-21T16:26:15.448Z,26.5
2023-05-21T16:27:38.852Z,26.4
2023-05-21T16:29:02.264Z,26.3
2023-05-21T16:30:25.664Z,26.3
2023-05-21T16:31:49.095Z,26.2
2023-05-21T16:33:12.502Z,26.1
2023-05-21T16:34:35.902Z,26
2023-05-21T16:35:59.307Z,26
2023-05-21T16:37:22.734Z,25.9
2023-05-21T16:38:46.129Z,25.9
2023-05-21T16:40:09.544Z,25.9
2023-05-21T16:41:31.964Z,25.8
2023-05-21T16:42:55.376Z,25.8
2023-05-21T16:44:18.791Z,25.7
2023-05-21T16:45:42.188Z,25.6
2023-05-21T16:47:05.606Z,25.6
2023-05-21T16:48:29.015Z,25.6
2023-05-21T16:49:52.420Z,25.5
2023-05-21T16:51:15.823Z,25.4
2023-05-21T16:52:39.247Z,25.3
2023-05-21T16:54:02.649Z,25.3
2023-05-21T16:55:26.050Z,25.3
2023-05-21T16:56:49.473Z,25.3
2023-05-21T16:58:12.880Z,25.2
2023-05-21T16:59:35.300Z,25.2
2023-05-21T17:00:58.707Z,25.2
2023-05-21T17:02:22.125Z,25.2
2023-05-21T17:03:45.532Z,25.1
2023-05-21T17:05:08.947Z,25.1
2023-05-21T17:07:55.763Z,25
2023-05-21T17:09:19.166Z,25
2023-05-21T17:10:42.583Z,25
2023-05-21T17:12:05.980Z,25
2023-05-21T17:13:29.382Z,24.9
2023-05-21T17:14:52.805Z,24.8
2023-05-21T17:16:16.203Z,24.8
2023-05-21T17:17:38.625Z,24.8
2023-05-21T17:19:02.042Z,24.8
2023-05-21T17:20:25.449Z,24.7
2023-05-21T17:21:48.868Z,24.8
2023-05-21T17:23:12.268Z,24.7
2023-05-21T17:24:35.662Z,24.6
2023-05-21T17:25:59.082Z,24.6
2023-05-21T17:27:22.491Z,24.5
2023-05-21T17:28:45.897Z,24.6
2023-05-21T17:30:09.325Z,24.5
2023-05-21T17:31:32.715Z,24.4
2023-05-21T17:32:56.136Z,24.4
2023-05-21T17:34:19.550Z,24.4
2023-05-21T17:35:41.976Z,24.3
2023-05-21T17:37:05.387Z,24.3
2023-05-21T17:38:28.796Z,24.3
2023-05-21T17:39:52.192Z,24.2
2023-05-21T17:41:15.608Z,24.2
2023-05-21T17:42:39.029Z,24.1
2023-05-21T17:44:02.434Z,24.1
2023-05-21T17:45:25.842Z,24.1
2023-05-21T17:46:49.258Z,24
2023-05-21T17:48:12.650Z,24
2023-05-21T17:49:36.070Z,24
2023-05-21T17:50:59.474Z,24
2023-05-21T17:52:22.882Z,23.9
2023-05-21T17:53:45.296Z,23.9
2023-05-21T17:55:08.708Z,23.9
2023-05-21T17:56:32.131Z,23.8
2023-05-21T17:57:55.534Z,23.8
2023-05-21T17:59:18.935Z,23.8
2023-05-21T18:00:42.354Z,23.7
2023-05-21T18:02:05.749Z,23.7
2023-05-21T18:03:29.150Z,23.7
2023-05-21T18:04:52.558Z,23.7
2023-05-21T18:06:15.965Z,23.6
2023-05-21T18:07:39.390Z,23.5
2023-05-21T18:09:02.795Z,23.5
2023-05-21T18:10:26.201Z,23.5
2023-05-21T18:11:48.629Z,23.5
2023-05-21T18:13:12.025Z,23.5
2023-05-21T18:14:35.448Z,23.4
2023-05-21T18:15:58.853Z,23.3
2023-05-21T18:17:22.260Z,23.3
2023-05-21T18:18:45.662Z,23.4
2023-05-21T18:20:09.074Z,23.2
2023-05-21T18:21:32.470Z,23.2
2023-05-21T18:22:55.873Z,23.2
2023-05-21T18:24:19.291Z,23.2
2023-05-21T18:25:42.690Z,23.1
2023-05-21T18:27:06.099Z,23
2023-05-21T18:28:29.511Z,23.1
2023-05-21T18:29:51.954Z,23
2023-05-21T18:31:15.354Z,23
2023-05-21T18:32:38.757Z,22.9
2023-05-21T18:34:02.161Z,22.9
2023-05-21T18:35:25.574Z,22.8
2023-05-21T18:38:12.381Z,22.8
2023-05-21T18:39:35.806Z,22.8
2023-05-21T18:40:59.213Z,22.7
2023-05-21T18:42:22.625Z,22.7
2023-05-21T18:43:46.031Z,22.6
2023-05-21T18:45:09.430Z,22.6
2023-05-21T18:46:32.849Z,22.5
2023-05-21T18:47:55.260Z,22.5
2023-05-21T18:49:18.688Z,22.5
2023-05-21T18:50:42.099Z,22.4
2023-05-21T18:52:05.497Z,22.4
2023-05-21T18:53:28.906Z,22.4
2023-05-21T18:54:52.313Z,22.3
2023-05-21T18:56:15.722Z,22.3
2023-05-21T18:57:39.134Z,22.3
2023-05-21T18:59:02.550Z,22.2
2023-05-21T19:00:25.943Z,22.2
2023-05-21T19:01:49.356Z,22.1
2023-05-21T19:03:12.760Z,22.1
2023-05-21T19:04:36.174Z,22.1
2023-05-21T19:05:58.594Z,22
2023-05-21T19:07:22.008Z,22
2023-05-21T19:08:45.417Z,22
2023-05-21T19:10:08.832Z,21.9
2023-05-21T19:11:32.232Z,21.9
2023-05-21T19:12:55.655Z,21.9
2023-05-21T19:15:41.480Z,21.8
2023-05-21T19:17:03.908Z,21.7
2023-05-21T19:18:27.304Z,21.7
2023-05-21T19:19:50.710Z,21.6
2023-05-21T19:21:14.129Z,21.7
2023-05-21T19:22:37.546Z,21.6
2023-05-21T19:24:00.949Z,21.5
2023-05-21T19:25:24.349Z,21.5
2023-05-21T19:26:47.764Z,21.4
2023-05-21T19:28:11.163Z,21.4
2023-05-21T19:29:34.559Z,21.3
2023-05-21T19:30:57.966Z,21.3
2023-05-21T19:32:21.380Z,21.2
2023-05-21T19:33:44.795Z,21.2
2023-05-21T19:35:07.256Z,21.2
2023-05-21T19:36:30.711Z,21.1
2023-05-21T19:37:54.162Z,21.1
2023-05-21T19:39:17.610Z,21
2023-05-21T19:40:41.063Z,21.1
2023-05-21T19:42:04.518Z,21
2023-05-21T19:43:27.969Z,21.1
2023-05-21T19:44:51.428Z,21
2023-05-21T19:46:14.874Z,21
2023-05-21T19:47:38.308Z,20.9
2023-05-21T19:49:01.765Z,21
2023-05-21T19:50:25.211Z,20.9
2023-05-21T19:51:48.660Z,20.9
2023-05-21T19:53:11.139Z,20.8
2023-05-21T19:54:34.585Z,20.8
2023-05-21T19:55:58.031Z,20.8
2023-05-21T19:57:21.498Z,20.8
2023-05-21T19:58:44.942Z,20.8
2023-05-21T20:00:08.401Z,20.7
2023-05-21T20:01:31.835Z,20.8
2023-05-21T20:02:55.290Z,20.8
2023-05-21T20:04:18.743Z,20.6
2023-05-21T20:05:42.187Z,20.7
2023-05-21T20:07:05.655Z,20.7
2023-05-21T20:08:29.104Z,20.7
2023-05-21T20:09:52.545Z,20.6
2023-05-21T20:11:15.000Z,20.6
2023-05-21T20:12:38.464Z,20.7
2023-05-21T20:14:01.915Z,20.5
2023-05-21T20:15:25.360Z,20.6
2023-05-21T20:16:48.812Z,20.6
2023-05-21T20:18:12.258Z,20.4
2023-05-21T20:19:35.706Z,20.5
2023-05-21T20:20:59.167Z,20.5
2023-05-21T20:22:22.603Z,20.5
2023-05-21T20:23:46.046Z,20.4
2023-05-21T20:25:09.509Z,20.4
2023-05-21T20:26:32.956Z,20.4
2023-05-21T20:27:56.407Z,20.3
2023-05-21T20:29:18.884Z,20.3
2023-05-21T20:30:42.321Z,20.3
2023-05-21T20:32:05.787Z,20.3
2023-05-21T20:33:29.221Z,20.3
2023-05-21T20:34:52.672Z,20.3
2023-05-21T20:36:16.133Z,20.3
2023-05-21T20:37:39.571Z,20.3
2023-05-21T20:39:03.025Z,20.2
2023-05-21T20:40:26.483Z,20.2
2023-05-21T20:41:49.925Z,20.2
2023-05-21T20:43:13.394Z,20.2
2023-05-21T20:44:36.846Z,20.1
2023-05-21T20:46:00.292Z,20.2
2023-05-21T20:47:22.746Z,20.2
2023-05-21T20:48:46.195Z,20.1
2023-05-21T20:50:09.659Z,20.1
2023-05-21T20:51:33.105Z,20.1
2023-05-21T20:52:56.558Z,20.1
2023-05-21T20:54:20.006Z,20.1
2023-05-21T20:55:43.452Z,20.1
2023-05-21T20:57:06.888Z,20.1
2023-05-21T20:58:30.347Z,20.1
2023-05-21T20:59:53.805Z,20.1
2023-05-21T21:01:17.241Z,20.1
2023-05-21T21:02:40.686Z,20.1
2023-05-21T21:04:04.147Z,20.1
2023-05-21T21:05:26.597Z,20
2023-05-21T21:06:50.055Z,20
2023-05-21T21:08:13.505Z,19.9
2023-05-21T21:09:36.944Z,19.9
2023-05-21T21:11:00.404Z,19.9
2023-05-21T21:12:23.842Z,19.9
2023-05-21T21:13:47.308Z,19.9
2023-05-21T21:15:10.752Z,19.9
2023-05-21T21:16:34.203Z,19.9
2023-05-21T21:17:57.642Z,19.8
2023-05-21T21:19:21.094Z,19.8
2023-05-21T21:20:44.554Z,19.7
2023-05-21T21:22:07.993Z,19.7
2023-05-21T21:23:30.000Z,19.8
2023-05-21T21:24:53.923Z,19.6
2023-05-21T21:26:17.360Z,19.7
2023-05-21T21:27:40.805Z,19.7
2023-05-21T21:29:04.258Z,19.6
2023-05-21T21:30:27.715Z,19.6
2023-05-21T21:31:51.154Z,19.6
2023-05-21T21:33:14.614Z,19.6
2023-05-21T21:34:38.070Z,19.6
2023-05-21T21:36:01.511Z,19.6
2023-05-21T21:37:24.962Z,19.5
2023-05-21T21:38:48.410Z,19.6
2023-05-21T21:40:11.849Z,19.5
2023-05-21T21:41:34.320Z,19.4
2023-05-21T21:42:57.765Z,19.4
2023-05-21T21:44:21.217Z,19.4
2023-05-21T21:45:44.659Z,19.3
2023-05-21T21:47:08.110Z,19.3
2023-05-21T21:48:31.561Z,19.3
2023-05-21T21:49:55.020Z,19.3
2023-05-21T21:51:18.480Z,19.2
2023-05-21T21:52:41.930Z,19.3
2023-05-21T21:54:05.378Z,19.2
2023-05-21T21:55:28.832Z,19.2
2023-05-21T21:56:52.271Z,19.1
2023-05-21T21:58:15.715Z,19.2
2023-05-21T21:59:38.180Z,19.1
2023-05-21T22:01:01.628Z,19.2
2023-05-21T22:02:25.082Z,19.1
2023-05-21T22:03:48.532Z,19
2023-05-21T22:05:11.981Z,19.1
2023-05-21T22:06:35.443Z,19.1
2023-05-21T22:07:58.898Z,19
2023-05-21T22:09:22.351Z,19
2023-05-21T22:10:45.796Z,19
2023-05-21T22:12:09.244Z,19.1
2023-05-21T22:13:32.698Z,19
2023-05-21T22:14:56.133Z,19
2023-05-21T22:16:19.579Z,18.9
2023-05-21T22:17:42.054Z,18.9
2023-05-21T22:19:05.496Z,18.9
2023-05-21T22:20:28.955Z,18.9
2023-05-21T22:21:52.395Z,18.9
2023-05-21T22:23:15.860Z,18.9
2023-05-21T22:24:39.292Z,18.8
2023-05-21T22:26:02.759Z,18.8
2023-05-21T22:27:26.203Z,18.8
2023-05-21T22:28:49.653Z,18.8
2023-05-21T22:30:13.102Z,18.7
2023-05-21T22:31:36.560Z,18.8
2023-05-21T22:33:00.002Z,18.8
2023-05-21T22:34:23.451Z,18.7
2023-05-21T22:35:45.923Z,18.8
2023-05-21T22:37:09.358Z,18.8
2023-05-21T22:38:32.809Z,18.7
2023-05-21T22:39:56.258Z,18.8
2023-05-21T22:41:19.700Z,18.7
2023-05-21T22:42:43.150Z,18.7
2023-05-21T22:44:06.608Z,18.6
2023-05-21T22:45:30.067Z,18.6
2023-05-21T22:46:53.507Z,18.7
2023-05-21T23:02:16.798Z,18.6
2023-05-21T23:17:40.108Z,18.5
2023-05-21T23:33:03.395Z,18.3
2023-05-21T23:48:26.689Z,18.1
